Time;durP1;ratioP1;P1;durP2;ratioP2;P2;SDS_P1;SDS_P2;PMS_P1;PMS_P2;Temp;Humidity;BMP_temperature;BMP_pressure;BME280_temperature;BME280_humidity;BME280_pressure;Samples;Min_cycle;Max_cycle;Signal;HPM_P1;HPM_P2
2020/12/07 00:00:44;;;;;;;50.80;26.10;;;;;;;3.97;90.28;99297.28;5098087;28;20885;-62
2020/12/07 00:03:12;;;;;;;51.57;25.77;;;;;;;3.97;90.28;99288.75;5096189;28;20482;-61
2020/12/07 00:05:38;;;;;;;51.10;26.13;;;;;;;3.97;90.35;99288.75;5097626;28;20448;-61
2020/12/07 00:08:05;;;;;;;50.90;25.50;;;;;;;3.95;90.34;99282.72;5096328;28;20565;-61
2020/12/07 00:10:31;;;;;;;46.23;26.20;;;;;;;3.93;90.42;99300.50;5097693;28;20458;-60
2020/12/07 00:12:58;;;;;;;46.90;25.30;;;;;;;4.05;90.28;99310.38;5096024;28;20943;-61
2020/12/07 00:15:25;;;;;;;50.60;24.80;;;;;;;4.04;90.16;99313.72;5097303;28;20570;-61
2020/12/07 00:17:52;;;;;;;52.00;25.17;;;;;;;4.01;90.28;99304.25;5095744;28;20572;-63
2020/12/07 00:20:19;;;;;;;60.60;25.90;;;;;;;4.03;90.38;99304.34;5097847;28;20769;-60
2020/12/07 00:22:45;;;;;;;42.47;23.60;;;;;;;3.95;90.54;99303.13;5094856;28;20512;-61
2020/12/07 00:25:12;;;;;;;43.33;23.97;;;;;;;4.00;90.57;99306.78;5096716;28;20478;-61
2020/12/07 00:27:38;;;;;;;45.77;24.40;;;;;;;4.06;90.39;99301.94;5095880;28;20478;-61
2020/12/07 00:30:06;;;;;;;53.53;25.20;;;;;;;4.00;90.61;99299.97;5097494;28;20454;-60
2020/12/07 00:32:34;;;;;;;50.37;25.37;;;;;;;3.98;90.79;99310.91;5094829;28;20486;-61
2020/12/07 00:35:04;;;;;;;49.57;24.90;;;;;;;4.10;90.33;99324.22;5097167;28;20470;-61
2020/12/07 00:37:30;;;;;;;49.47;24.43;;;;;;;4.07;90.61;99311.34;5095689;28;20988;-61
2020/12/07 00:39:57;;;;;;;44.73;23.33;;;;;;;4.09;90.68;99302.06;5097306;28;20479;-61
2020/12/07 00:42:24;;;;;;;48.47;25.03;;;;;;;4.07;90.73;99288.38;5095669;28;20501;-61
2020/12/07 00:44:50;;;;;;;46.07;23.63;;;;;;;4.06;90.65;99291.72;5097043;28;20466;-60
2020/12/07 00:47:17;;;;;;;48.20;23.33;;;;;;;4.07;90.71;99288.38;5095796;28;20557;-60
2020/12/07 00:49:44;;;;;;;49.00;23.60;;;;;;;4.16;90.35;99298.13;5097412;28;20450;-61
2020/12/07 00:52:10;;;;;;;47.43;22.43;;;;;;;4.21;90.15;99299.19;5095785;28;20513;-62
2020/12/07 00:54:38;;;;;;;43.40;24.07;;;;;;;4.17;89.98;99284.53;5096786;28;20480;-60
2020/12/07 00:57:04;;;;;;;39.23;22.03;;;;;;;4.30;89.88;99275.72;5095585;28;20492;-61
2020/12/07 00:59:32;;;;;;;48.20;23.50;;;;;;;4.25;90.16;99274.66;5096903;28;20482;-62
2020/12/07 01:01:59;;;;;;;43.93;23.20;;;;;;;4.28;90.15;99279.88;5095289;28;20482;-62
2020/12/07 01:04:26;;;;;;;45.87;24.50;;;;;;;4.31;89.80;99265.56;5096489;28;20994;-62
2020/12/07 01:06:53;;;;;;;40.03;21.27;;;;;;;4.23;90.41;99258.38;5095519;28;20478;-61
2020/12/07 01:09:21;;;;;;;40.17;21.57;;;;;;;4.37;89.95;99261.53;5096905;28;20761;-62
2020/12/07 01:11:54;;;;;;;39.37;22.30;;;;;;;4.30;89.93;99262.94;5095020;28;20489;-60
2020/12/07 01:14:21;;;;;;;43.17;22.23;;;;;;;4.25;90.47;99254.25;5096237;28;20464;-61
2020/12/07 01:16:50;;;;;;;43.43;21.63;;;;;;;4.36;90.07;99258.09;5095181;28;20515;-61
2020/12/07 01:19:16;;;;;;;43.07;20.83;;;;;;;4.38;89.87;99256.50;5096620;28;20463;-62
2020/12/07 01:21:43;;;;;;;45.47;22.27;;;;;;;4.42;89.80;99263.47;5094988;28;20917;-61
2020/12/07 01:24:11;;;;;;;43.10;21.70;;;;;;;4.36;90.07;99259.81;5096217;28;20482;-61
2020/12/07 01:26:38;;;;;;;41.37;22.40;;;;;;;4.26;90.43;99253.44;5094698;28;20831;-60
2020/12/07 01:29:05;;;;;;;37.47;20.43;;;;;;;4.32;90.27;99256.25;5096031;28;20476;-61
2020/12/07 01:31:32;;;;;;;41.23;22.00;;;;;;;4.26;90.42;99261.09;5086851;28;20471;-62
2020/12/07 01:33:59;;;;;;;40.63;20.83;;;;;;;4.27;90.51;99255.16;5095871;28;20848;-61
2020/12/07 01:36:25;;;;;;;37.70;22.13;;;;;;;4.22;90.52;99251.53;5095131;28;20845;-61
2020/12/07 01:38:52;;;;;;;41.77;21.57;;;;;;;4.31;90.19;99254.50;5096230;28;21017;-62
2020/12/07 01:41:20;;;;;;;42.20;21.90;;;;;;;4.39;89.91;99245.47;5094637;28;20546;-62
2020/12/07 01:43:47;;;;;;;44.07;22.37;;;;;;;4.40;89.68;99244.66;5096054;28;20849;-62
2020/12/07 01:46:17;;;;;;;40.03;22.00;;;;;;;4.46;89.66;99244.91;5094053;28;20549;-61
2020/12/07 01:48:43;;;;;;;46.23;21.27;;;;;;;4.42;89.84;99258.34;5096079;28;20478;-61
2020/12/07 01:51:10;;;;;;;41.00;20.23;;;;;;;4.46;90.03;99257.69;5096242;28;20893;-63
2020/12/07 01:53:36;;;;;;;41.90;21.80;;;;;;;4.42;90.28;99258.34;5095137;28;20775;-61
2020/12/07 01:56:03;;;;;;;47.00;21.77;;;;;;;4.43;90.20;99252.47;5095849;28;20454;-61
2020/12/07 01:58:30;;;;;;;42.50;22.33;;;;;;;4.41;90.34;99248.97;5094065;28;20494;-61
2020/12/07 02:00:57;;;;;;;40.97;21.63;;;;;;;4.44;90.38;99233.78;5096163;28;20545;-61
2020/12/07 02:03:23;;;;;;;49.40;22.43;;;;;;;4.48;90.42;99236.44;5091909;28;20478;-61
2020/12/07 02:05:50;;;;;;;35.73;20.40;;;;;;;4.59;89.87;99237.78;5095601;28;20978;-61
2020/12/07 02:08:18;;;;;;;40.13;21.87;;;;;;;4.52;90.15;99241.75;5089519;28;20564;-62
2020/12/07 02:10:45;;;;;;;41.43;20.83;;;;;;;4.61;90.04;99222.50;5095996;28;20458;-60
2020/12/07 02:13:12;;;;;;;35.03;19.80;;;;;;;4.65;90.01;99216.69;5093968;28;20482;-62
2020/12/07 02:15:40;;;;;;;38.00;20.80;;;;;;;4.73;89.59;99231.53;5095397;28;20493;-62
2020/12/07 02:18:08;;;;;;;39.90;20.40;;;;;;;4.72;89.63;99239.16;5094050;28;20825;-61
2020/12/07 02:20:36;;;;;;;40.17;21.70;;;;;;;4.70;90.02;99225.44;5095762;28;20532;-60
2020/12/07 02:23:03;;;;;;;35.83;19.80;;;;;;;4.70;89.88;99221.22;5094190;28;20782;-61
2020/12/07 02:25:30;;;;;;;35.77;19.70;;;;;;;4.76;89.98;99224.84;5094965;28;20478;-61
2020/12/07 02:27:56;;;;;;;37.10;20.03;;;;;;;4.81;89.77;99226.75;5093492;28;20466;-61
2020/12/07 02:30:24;;;;;;;36.57;20.37;;;;;;;4.79;90.10;99230.06;5095588;28;20774;-61
2020/12/07 02:32:51;;;;;;;34.23;18.87;;;;;;;4.80;90.17;99230.13;5094542;28;20576;-61
2020/12/07 02:35:19;;;;;;;36.80;19.23;;;;;;;4.88;89.80;99224.44;5095293;28;20474;-61
2020/12/07 02:37:47;;;;;;;30.47;18.73;;;;;;;4.96;89.74;99218.81;5093657;28;20475;-60
2020/12/07 02:40:15;;;;;;;39.23;20.60;;;;;;;4.95;89.74;99222.19;5095650;28;20487;-62
2020/12/07 02:42:42;;;;;;;34.83;18.77;;;;;;;5.05;89.72;99222.53;5093459;28;20527;-61
2020/12/07 02:45:10;;;;;;;41.40;20.90;;;;;;;5.09;89.48;99222.72;5095195;28;20474;-61
2020/12/07 02:47:36;;;;;;;33.87;18.77;;;;;;;5.12;89.30;99225.41;5093953;28;20480;-61
2020/12/07 02:50:05;;;;;;;34.10;18.40;;;;;;;5.20;89.24;99212.06;5095577;28;20545;-61
2020/12/07 02:52:32;;;;;;;37.67;18.47;;;;;;;5.22;89.37;99216.41;5093945;28;20481;-62
2020/12/07 02:55:01;;;;;;;33.53;17.77;;;;;;;5.24;89.28;99217.34;5095102;28;20470;-60
2020/12/07 02:57:28;;;;;;;30.37;18.00;;;;;;;5.36;88.79;99218.63;5097708;28;20566;-62
2020/12/07 02:59:55;;;;;;;31.63;16.90;;;;;;;5.40;88.59;99203.44;5099471;28;20486;-62
2020/12/07 03:02:23;;;;;;;31.87;17.60;;;;;;;5.44;88.74;99195.91;5097541;28;20783;-61
2020/12/07 03:04:50;;;;;;;29.97;16.90;;;;;;;5.51;88.29;99191.09;5098814;28;20474;-62
2020/12/07 03:07:17;;;;;;;35.73;15.93;;;;;;;5.56;88.17;99180.13;5097655;28;20539;-61
2020/12/07 03:09:43;;;;;;;27.97;16.90;;;;;;;5.50;88.24;99176.50;5098952;28;20793;-62
2020/12/07 03:12:11;;;;;;;30.90;16.83;;;;;;;5.49;88.35;99172.22;5097533;28;20477;-61
2020/12/07 03:14:37;;;;;;;33.50;15.60;;;;;;;5.52;88.25;99168.91;5098502;28;20482;-61
2020/12/07 03:17:04;;;;;;;28.77;16.63;;;;;;;5.63;87.80;99180.41;5097571;28;20474;-62
2020/12/07 03:19:30;;;;;;;27.10;16.33;;;;;;;5.56;87.95;99177.56;5098941;28;20569;-61
2020/12/07 03:21:58;;;;;;;29.50;16.60;;;;;;;5.64;87.68;99189.81;5097430;28;20818;-61
2020/12/07 03:24:24;;;;;;;27.23;16.30;;;;;;;5.61;87.70;99170.94;5098005;28;20859;-61
2020/12/07 03:26:51;;;;;;;27.07;15.97;;;;;;;5.62;87.87;99170.13;5097107;28;20469;-60
2020/12/07 03:29:18;;;;;;;30.63;16.60;;;;;;;5.66;87.50;99161.75;5098874;28;20488;-61
2020/12/07 03:31:45;;;;;;;30.63;16.77;;;;;;;5.69;87.35;99161.84;5097252;28;20545;-60
2020/12/07 03:34:12;;;;;;;25.67;16.20;;;;;;;5.78;87.04;99157.06;5098149;28;20940;-62
2020/12/07 03:36:41;;;;;;;29.00;16.50;;;;;;;5.76;87.20;99152.69;5096891;28;20466;-61
2020/12/07 03:39:08;;;;;;;29.60;17.00;;;;;;;5.73;87.03;99142.34;5098390;28;20527;-61
2020/12/07 03:41:35;;;;;;;28.57;15.90;;;;;;;5.72;87.14;99148.28;5097566;28;20470;-62
2020/12/07 03:44:02;;;;;;;29.00;16.33;;;;;;;5.75;86.75;99146.69;5098164;28;20976;-61
2020/12/07 03:46:30;;;;;;;29.47;15.80;;;;;;;5.75;86.86;99123.66;5097068;28;20838;-62
2020/12/07 03:48:56;;;;;;;28.13;16.47;;;;;;;5.74;87.06;99131.31;5098468;28;20466;-61
2020/12/07 03:51:23;;;;;;;31.90;16.73;;;;;;;5.70;87.03;99121.78;5096774;28;20542;-60
2020/12/07 03:53:50;;;;;;;29.03;16.03;;;;;;;5.76;86.71;99130.56;5098329;28;20558;-61
2020/12/07 03:56:17;;;;;;;30.50;16.90;;;;;;;5.79;86.65;99128.09;5096098;28;20559;-61
2020/12/07 03:58:43;;;;;;;30.47;15.83;;;;;;;5.78;86.55;99136.59;5098038;28;20493;-63
2020/12/07 04:01:10;;;;;;;25.83;15.27;;;;;;;5.78;86.56;99136.59;5098053;28;20464;-62
2020/12/07 04:03:39;;;;;;;27.60;15.53;;;;;;;5.78;86.59;99139.16;5097678;28;20459;-62
2020/12/07 04:06:10;;;;;;;29.77;16.40;;;;;;;5.84;86.47;99141.03;5097918;28;20530;-62
2020/12/07 04:08:36;;;;;;;25.87;15.80;;;;;;;5.76;86.67;99147.59;5096059;28;20462;-61
2020/12/07 04:11:03;;;;;;;30.90;16.27;;;;;;;5.80;86.58;99129.81;5097660;28;20457;-63
2020/12/07 04:13:30;;;;;;;25.97;15.83;;;;;;;5.77;86.88;99134.84;5095742;28;20478;-60
2020/12/07 04:15:56;;;;;;;25.57;16.03;;;;;;;5.68;87.25;99139.63;5097224;28;20478;-62
2020/12/07 04:18:26;;;;;;;27.67;15.90;;;;;;;5.70;87.24;99138.00;5087646;28;20482;-61
2020/12/07 04:20:55;;;;;;;24.00;15.10;;;;;;;5.65;87.30;99136.97;5090106;28;20454;-62
2020/12/07 04:23:22;;;;;;;28.30;16.03;;;;;;;5.63;87.34;99126.69;5095574;28;20482;-61
2020/12/07 04:25:48;;;;;;;24.40;14.83;;;;;;;5.58;87.32;99130.75;5097109;28;20478;-61
2020/12/07 04:28:15;;;;;;;25.93;15.90;;;;;;;5.69;86.89;99136.25;5095543;28;20475;-62
2020/12/07 04:30:41;;;;;;;28.27;15.33;;;;;;;5.59;87.13;99147.00;5097210;28;20464;-62
2020/12/07 04:33:07;;;;;;;36.83;15.20;;;;;;;5.67;86.86;99143.88;5095232;28;20478;-62
2020/12/07 04:35:34;;;;;;;30.67;16.10;;;;;;;5.67;86.56;99140.44;5096362;28;20781;-61
2020/12/07 04:38:01;;;;;;;26.73;15.43;;;;;;;5.72;86.54;99141.50;5095448;28;20562;-62
2020/12/07 04:40:28;;;;;;;24.83;14.77;;;;;;;5.63;87.01;99138.59;5097200;28;20478;-62
2020/12/07 04:42:56;;;;;;;26.87;14.80;;;;;;;5.67;86.58;99143.00;5095160;28;20480;-61
2020/12/07 04:45:23;;;;;;;29.57;15.47;;;;;;;5.72;86.44;99136.38;5096385;28;20478;-61
2020/12/07 04:47:51;;;;;;;25.40;15.00;;;;;;;5.73;86.17;99147.47;5095255;28;20494;-62
2020/12/07 04:50:18;;;;;;;27.10;15.47;;;;;;;5.67;86.31;99143.88;5096800;28;20461;-61
2020/12/07 04:52:45;;;;;;;26.27;15.43;;;;;;;5.57;86.80;99146.94;5095439;28;20615;-62
2020/12/07 04:55:13;;;;;;;30.50;16.50;;;;;;;5.61;86.74;99147.91;5096183;28;20687;-62
2020/12/07 04:57:40;;;;;;;27.07;15.53;;;;;;;5.77;86.00;99150.22;5094829;28;20497;-62
2020/12/07 05:00:06;;;;;;;27.20;15.23;;;;;;;5.64;86.42;99142.91;5096511;28;20564;-63
2020/12/07 05:02:36;;;;;;;24.60;14.63;;;;;;;5.68;86.30;99137.06;5095903;28;20473;-62
2020/12/07 05:05:04;;;;;;;28.57;15.30;;;;;;;5.74;85.79;99139.84;5096073;28;20529;-62
2020/12/07 05:07:32;;;;;;;23.87;14.30;;;;;;;5.77;85.64;99144.19;5095080;28;20572;-62
2020/12/07 05:09:58;;;;;;;29.50;15.73;;;;;;;5.74;85.93;99139.84;5096511;28;20468;-62
2020/12/07 05:12:34;;;;;;;30.70;16.70;;;;;;;5.69;85.77;99136.25;5094857;28;20474;-63
2020/12/07 05:15:00;;;;;;;25.90;13.90;;;;;;;5.66;85.92;99124.22;5095937;28;20490;-61
2020/12/07 05:17:29;;;;;;;27.17;15.20;;;;;;;5.65;86.23;99121.63;5094798;28;20553;-62
2020/12/07 05:19:56;;;;;;;29.27;14.93;;;;;;;5.56;86.45;99118.72;5096047;28;20488;-61
2020/12/07 05:22:23;;;;;;;25.27;15.10;;;;;;;5.57;86.44;99117.91;5094253;28;20575;-62
2020/12/07 05:24:50;;;;;;;32.07;15.67;;;;;;;5.62;86.50;99108.69;5095814;28;20479;-61
2020/12/07 05:27:39;;;;;;;25.47;14.20;;;;;;;5.61;86.54;99106.97;5094311;28;20570;-63
2020/12/07 05:30:11;;;;;;;26.33;15.03;;;;;;;5.61;86.21;99107.84;5096003;28;20512;-62
2020/12/07 05:32:38;;;;;;;26.40;15.03;;;;;;;5.61;86.31;99122.31;5094658;28;20479;-61
2020/12/07 05:35:07;;;;;;;28.70;14.70;;;;;;;5.71;85.79;99126.06;5095338;28;20556;-61
2020/12/07 05:37:34;;;;;;;25.93;14.30;;;;;;;5.66;86.09;99131.88;5094252;28;20501;-61
2020/12/07 05:40:02;;;;;;;30.77;15.13;;;;;;;5.68;85.96;99134.50;5096075;28;20484;-62
2020/12/07 05:42:29;;;;;;;27.40;15.77;;;;;;;5.73;85.80;99140.66;5091386;28;20481;-62
2020/12/07 05:44:57;;;;;;;27.33;14.37;;;;;;;5.75;85.68;99133.06;5095327;28;20765;-62
2020/12/07 05:47:26;;;;;;;24.97;14.63;;;;;;;5.67;85.91;99128.53;5094176;28;20482;-62
2020/12/07 05:49:54;;;;;;;24.50;14.63;;;;;;;5.74;85.85;99109.13;5095848;28;20450;-61
2020/12/07 05:52:26;;;;;;;24.90;14.87;;;;;;;5.77;85.51;99108.38;5093838;28;20845;-62
2020/12/07 05:54:53;;;;;;;29.23;14.70;;;;;;;5.84;85.34;99099.22;5095588;28;20449;-62
2020/12/07 05:57:21;;;;;;;25.03;13.87;;;;;;;5.74;85.66;99098.91;5093959;28;20487;-61
2020/12/07 05:59:54;;;;;;;26.27;13.80;;;;;;;5.80;85.60;99106.78;5095712;28;20492;-61
2020/12/07 06:02:22;;;;;;;24.23;14.07;;;;;;;5.90;85.08;99107.97;5094188;28;20509;-62
2020/12/07 06:04:51;;;;;;;28.53;15.67;;;;;;;5.89;84.91;99098.56;5095092;28;20473;-61
2020/12/07 06:07:20;;;;;;;25.20;13.83;;;;;;;5.89;85.10;99087.47;5094030;28;20838;-61
2020/12/07 06:09:48;;;;;;;26.47;13.70;;;;;;;5.92;84.98;99090.09;5095719;28;20455;-61
2020/12/07 06:12:19;;;;;;;31.57;14.60;;;;;;;5.86;85.10;99102.69;5093823;28;20492;-61
2020/12/07 06:14:46;;;;;;;27.27;14.00;;;;;;;5.81;85.52;99121.31;5093774;28;20460;-62
2020/12/07 06:17:17;;;;;;;25.70;14.50;;;;;;;5.89;85.35;99113.06;5087020;28;20491;-61
2020/12/07 06:19:51;;;;;;;25.60;13.47;;;;;;;5.87;85.33;99120.69;5095722;28;21010;-61
2020/12/07 06:22:20;;;;;;;25.83;13.77;;;;;;;5.88;85.56;99113.84;5094145;28;20528;-61
2020/12/07 06:24:48;;;;;;;22.70;13.83;;;;;;;5.81;85.65;99102.56;5095202;28;20481;-61
2020/12/07 06:27:16;;;;;;;25.57;13.60;;;;;;;5.79;85.54;99099.03;5093332;28;20849;-61
2020/12/07 06:29:59;;;;;;;26.63;14.17;;;;;;;5.96;85.03;99099.66;5095382;28;20460;-61
2020/12/07 06:32:45;;;;;;;26.33;13.80;;;;;;;5.88;85.11;99096.81;5097680;28;20528;-62
2020/12/07 06:35:12;;;;;;;25.53;14.27;;;;;;;5.99;84.99;99083.53;5098807;28;20560;-61
2020/12/07 06:37:43;;;;;;;27.00;13.43;;;;;;;5.91;84.69;99088.38;5097528;28;20478;-62
2020/12/07 06:40:10;;;;;;;22.47;13.50;;;;;;;5.97;85.20;99103.06;5099184;28;20566;-61
2020/12/07 06:42:41;;;;;;;27.10;13.93;;;;;;;5.92;85.19;99100.34;5097569;28;20486;-61
2020/12/07 06:45:09;;;;;;;27.17;12.77;;;;;;;5.94;85.13;99106.38;5098834;28;20478;-62
2020/12/07 06:47:39;;;;;;;25.60;14.10;;;;;;;6.05;84.47;99105.09;5097527;28;20856;-62
2020/12/07 06:50:10;;;;;;;24.27;14.00;;;;;;;6.03;84.60;99096.50;5099107;28;20839;-60
2020/12/07 06:52:41;;;;;;;22.43;12.90;;;;;;;6.01;84.57;99089.56;5097577;28;20489;-61
2020/12/07 06:55:11;;;;;;;27.47;13.83;;;;;;;6.03;84.67;99101.63;5098645;28;20512;-61
2020/12/07 06:57:42;;;;;;;25.73;14.07;;;;;;;6.11;84.20;99098.44;5097525;28;20508;-61
2020/12/07 07:00:11;;;;;;;23.80;13.73;;;;;;;6.12;84.21;99105.31;5098951;28;20478;-61
2020/12/07 07:02:40;;;;;;;23.20;13.13;;;;;;;6.12;83.97;99110.41;5097210;28;20521;-62
2020/12/07 07:05:07;;;;;;;24.37;13.37;;;;;;;6.15;83.74;99100.28;5098321;28;20992;-62
2020/12/07 07:07:34;;;;;;;26.63;13.37;;;;;;;6.18;83.69;99110.63;5097111;28;20471;-60
2020/12/07 07:10:02;;;;;;;23.60;12.47;;;;;;;6.15;83.77;99113.09;5098534;28;20464;-60
2020/12/07 07:12:28;;;;;;;26.30;12.57;;;;;;;6.16;83.60;99118.25;5096888;28;20481;-62
2020/12/07 07:14:57;;;;;;;31.50;15.70;;;;;;;6.17;83.69;99125.13;5098110;28;20477;-62
2020/12/07 07:17:25;;;;;;;25.07;13.63;;;;;;;6.29;83.34;99124.66;5096495;28;20506;-61
2020/12/07 07:19:52;;;;;;;24.30;12.90;;;;;;;6.32;82.96;99122.19;5098195;28;20486;-60
2020/12/07 07:22:19;;;;;;;26.60;13.53;;;;;;;6.31;82.88;99122.16;5096843;28;20487;-61
2020/12/07 07:25:02;;;;;;;22.07;12.30;;;;;;;6.24;83.08;99131.31;5097528;28;20476;-62
2020/12/07 07:30:16;;;;;;;23.07;12.90;;;;;;;6.38;82.56;99130.91;5077903;28;20546;-62
2020/12/07 07:32:44;;;;;;;25.97;12.10;;;;;;;6.32;82.59;99135.00;5076548;28;20486;-62
2020/12/07 07:35:12;;;;;;;22.83;12.37;;;;;;;6.34;82.51;99130.81;5077716;28;20563;-58
2020/12/07 07:37:39;;;;;;;24.10;12.03;;;;;;;6.30;82.60;99136.66;5075761;28;20477;-62
2020/12/07 07:40:07;;;;;;;23.80;12.83;;;;;;;6.30;82.59;99136.66;5078009;28;20530;-60
2020/12/07 07:42:40;;;;;;;24.33;14.00;;;;;;;6.31;82.80;99132.41;5075728;28;20487;-62
2020/12/07 07:45:07;;;;;;;21.80;12.90;;;;;;;6.39;82.43;99142.88;5077829;28;20481;-59
2020/12/07 07:47:40;;;;;;;27.13;14.00;;;;;;;6.31;82.63;99138.38;5076097;28;20635;-60
2020/12/07 08:15:40;;;;;;;28.63;14.47;;;;;;;6.37;82.54;99154.78;5097069;28;20612;-61
2020/12/07 08:18:06;;;;;;;23.93;12.80;;;;;;;6.31;82.35;99158.88;5097418;28;20456;-61
2020/12/07 08:20:34;;;;;;;25.77;13.50;;;;;;;6.35;82.44;99155.59;5097594;28;20507;-61
2020/12/07 08:23:02;;;;;;;24.30;13.40;;;;;;;6.43;82.07;99152.41;5096659;28;20490;-62
2020/12/07 08:25:43;;;;;;;27.33;13.63;;;;;;;6.33;82.18;99152.13;5096954;28;20815;-61
2020/12/07 08:28:21;;;;;;;28.10;13.60;;;;;;;6.31;82.58;99152.91;5096444;28;20482;-61
2020/12/07 08:31:10;;;;;;;26.40;14.33;;;;;;;6.33;82.44;99156.38;5097274;28;20500;-61
2020/12/07 08:33:38;;;;;;;21.53;12.80;;;;;;;6.27;82.53;99167.31;5096948;28;20447;-62
2020/12/07 08:36:07;;;;;;;27.37;13.10;;;;;;;6.33;82.40;99156.38;5079404;28;20831;-60
2020/12/07 08:38:36;;;;;;;27.77;14.53;;;;;;;6.35;82.19;99168.41;5088539;28;20485;-61
2020/12/07 08:41:11;;;;;;;25.13;13.47;;;;;;;6.21;82.80;99169.66;5096120;28;20797;-61
2020/12/07 08:43:40;;;;;;;27.83;14.40;;;;;;;6.30;82.75;99177.63;5096568;28;20460;-61
2020/12/07 08:46:08;;;;;;;27.80;13.80;;;;;;;6.32;82.38;99180.25;5095740;28;20539;-61
2020/12/07 08:48:35;;;;;;;25.00;14.17;;;;;;;6.39;82.34;99178.75;5097093;28;20774;-63
2020/12/07 08:51:02;;;;;;;24.83;13.97;;;;;;;6.38;82.10;99187.25;5096061;28;20455;-61
2020/12/07 08:53:29;;;;;;;26.27;14.47;;;;;;;6.46;81.86;99183.28;5096070;28;20785;-60
2020/12/07 08:55:55;;;;;;;27.70;13.47;;;;;;;6.33;82.60;99177.75;5095630;28;20482;-61
2020/12/07 08:58:22;;;;;;;25.77;14.30;;;;;;;6.32;82.74;99175.97;5096363;28;20488;-61
2020/12/07 09:00:48;;;;;;;24.57;13.73;;;;;;;6.31;83.02;99158.88;5096441;28;20485;-62
2020/12/07 09:03:16;;;;;;;26.90;14.80;;;;;;;6.40;82.77;99152.34;5096021;28;20497;-61
2020/12/07 09:05:42;;;;;;;27.90;14.10;;;;;;;6.52;82.66;99168.13;5096139;28;20479;-61
2020/12/07 09:08:09;;;;;;;28.97;13.57;;;;;;;6.38;83.14;99169.31;5095625;28;20477;-62
2020/12/07 09:10:35;;;;;;;24.90;14.33;;;;;;;6.46;83.20;99175.59;5096534;28;20451;-62
2020/12/07 09:13:03;;;;;;;23.47;13.60;;;;;;;6.41;82.92;99182.25;5095739;28;20846;-63
2020/12/07 09:15:30;;;;;;;26.50;15.20;;;;;;;6.50;82.75;99190.22;5095862;28;20954;-62
2020/12/07 09:17:56;;;;;;;29.07;13.90;;;;;;;6.55;82.25;99187.81;5095324;28;20501;-60
2020/12/07 09:20:24;;;;;;;25.50;13.43;;;;;;;6.56;82.15;99190.44;5096039;28;21012;-61
2020/12/07 09:22:51;;;;;;;32.17;15.17;;;;;;;6.43;82.63;99190.84;5095210;28;20842;-62
2020/12/07 09:25:17;;;;;;;26.07;13.60;;;;;;;6.54;82.72;99192.09;5095542;28;20467;-61
2020/12/07 09:27:44;;;;;;;25.67;14.03;;;;;;;6.78;81.35;99186.03;5095385;28;20507;-62
2020/12/07 09:30:11;;;;;;;25.17;13.57;;;;;;;6.68;81.79;99177.16;5095567;28;20486;-60
2020/12/07 09:32:38;;;;;;;26.50;13.73;;;;;;;6.65;82.14;99179.63;5095905;28;20459;-61
2020/12/07 09:35:06;;;;;;;24.93;14.43;;;;;;;6.60;81.70;99194.84;5095520;28;20782;-60
2020/12/07 09:37:33;;;;;;;27.07;13.47;;;;;;;6.47;82.43;99190.16;5095532;28;20544;-62
2020/12/07 09:40:00;;;;;;;25.53;14.30;;;;;;;6.55;82.28;99201.50;5096043;28;20493;-61
2020/12/07 09:42:26;;;;;;;28.67;13.77;;;;;;;6.56;82.14;99208.38;5094881;28;20562;-61
2020/12/07 09:44:58;;;;;;;24.33;14.10;;;;;;;6.52;82.30;99192.84;5095478;28;20480;-62
2020/12/07 09:47:25;;;;;;;24.00;12.70;;;;;;;6.60;82.38;99192.28;5095107;28;20462;-60
2020/12/07 09:49:52;;;;;;;25.87;13.37;;;;;;;6.34;82.98;99199.09;5095718;28;20494;-62
2020/12/07 09:52:19;;;;;;;29.03;14.23;;;;;;;6.32;82.91;99211.84;5094661;28;20544;-62
2020/12/07 09:54:47;;;;;;;24.87;13.07;;;;;;;6.22;83.58;99202.13;5095076;28;20510;-62
2020/12/07 09:57:14;;;;;;;18.10;9.00;;;;;;;5.94;84.59;99216.47;5095759;28;20462;-60
2020/12/07 09:59:40;;;;;;;25.80;13.93;;;;;;;5.95;84.98;99215.69;5094291;28;20488;-61
2020/12/07 10:02:07;;;;;;;25.97;13.07;;;;;;;5.89;85.39;99207.78;5095613;28;20874;-61
2020/12/07 10:04:33;;;;;;;26.07;14.00;;;;;;;5.88;85.79;99198.31;5093861;28;20558;-61
2020/12/07 10:07:00;;;;;;;26.37;14.70;;;;;;;5.99;85.62;99196.19;5096131;28;20464;-62
2020/12/07 10:09:26;;;;;;;27.70;15.50;;;;;;;6.04;85.28;99210.91;5094450;28;20590;-62
2020/12/07 10:11:54;;;;;;;36.50;18.80;;;;;;;5.83;85.81;99207.56;5095616;28;20503;-60
2020/12/07 10:14:20;;;;;;;25.30;13.47;;;;;;;5.73;86.14;99212.31;5092289;28;20514;-61
2020/12/07 10:16:47;;;;;;;31.83;17.53;;;;;;;5.78;85.60;99210.81;5095370;28;20587;-60
2020/12/07 10:19:14;;;;;;;26.30;12.50;;;;;;;5.65;85.61;99216.31;5094037;28;20492;-61
2020/12/07 10:21:41;;;;;;;33.07;18.50;;;;;;;5.74;85.58;99213.22;5095551;28;20482;-61
2020/12/07 10:24:08;;;;;;;34.70;17.87;;;;;;;5.76;85.40;99209.00;5093974;28;20482;-60
2020/12/07 10:26:34;;;;;;;30.57;17.10;;;;;;;5.66;85.30;99202.69;5095700;28;20461;-60
2020/12/07 10:29:02;;;;;;;35.10;18.63;;;;;;;5.68;85.33;99211.28;5094687;28;20496;-60
2020/12/07 10:31:42;;;;;;;34.90;19.47;;;;;;;5.78;85.05;99213.38;5096105;28;20453;-61
2020/12/07 10:34:08;;;;;;;31.80;17.20;;;;;;;5.73;84.94;99204.66;5092892;28;20482;-62
2020/12/07 10:36:35;;;;;;;28.57;17.00;;;;;;;5.80;84.75;99205.75;5095610;28;20466;-61
2020/12/07 10:39:04;;;;;;;35.20;18.47;;;;;;;5.73;84.87;99208.88;5094422;28;20459;-61
2020/12/07 10:41:31;;;;;;;36.60;19.00;;;;;;;5.86;84.70;99215.34;5095527;28;20457;-61
2020/12/07 10:43:57;;;;;;;40.10;18.43;;;;;;;5.73;84.50;99214.88;5093936;28;20478;-60
2020/12/07 10:46:25;;;;;;;29.50;15.13;;;;;;;5.56;85.33;99210.81;5095633;28;20500;-61
2020/12/07 10:48:51;;;;;;;33.30;18.63;;;;;;;5.68;84.80;99226.63;5093898;28;20498;-61
2020/12/07 10:51:18;;;;;;;36.80;19.73;;;;;;;5.66;85.06;99235.94;5095608;28;20533;-60
2020/12/07 10:53:45;;;;;;;34.53;18.97;;;;;;;5.54;85.14;99239.78;5094348;28;20476;-62
2020/12/07 10:56:13;;;;;;;35.80;19.10;;;;;;;5.50;85.27;99248.16;5095185;28;20545;-62
2020/12/07 10:58:40;;;;;;;35.97;18.33;;;;;;;5.44;85.16;99253.03;5094213;28;20576;-62
2020/12/07 11:01:07;;;;;;;32.07;17.20;;;;;;;5.39;85.69;99250.31;5095591;28;20573;-61
2020/12/07 11:03:34;;;;;;;38.70;20.23;;;;;;;5.47;85.28;99240.38;5094259;28;20469;-62
2020/12/07 11:06:10;;;;;;;36.97;19.67;;;;;;;5.32;85.80;99250.03;5095054;28;20553;-61
2020/12/07 11:08:45;;;;;;;34.47;18.07;;;;;;;5.35;85.69;99261.25;5093210;28;20486;-61
2020/12/07 11:11:12;;;;;;;37.80;20.97;;;;;;;5.32;85.64;99255.16;5095715;28;20537;-61
2020/12/07 11:13:39;;;;;;;34.40;19.57;;;;;;;5.34;85.20;99241.56;5093114;28;20998;-60
2020/12/07 11:16:05;;;;;;;38.97;20.00;;;;;;;5.51;84.84;99260.16;5095418;28;20465;-61
2020/12/07 11:18:33;;;;;;;32.50;17.10;;;;;;;5.36;84.26;99270.66;5097088;28;20478;-62
2020/12/07 11:21:00;;;;;;;30.70;15.67;;;;;;;5.22;84.72;99288.03;5099086;28;20777;-62
2020/12/07 11:23:27;;;;;;;39.00;20.43;;;;;;;5.20;84.93;99297.31;5097392;28;20777;-62
2020/12/07 11:25:54;;;;;;;33.10;18.70;;;;;;;5.21;84.89;99293.94;5097955;28;20553;-61
2020/12/07 11:28:20;;;;;;;38.20;18.60;;;;;;;4.94;85.78;99292.03;5095301;28;20484;-60
2020/12/07 11:30:47;;;;;;;38.20;17.40;;;;;;;4.76;85.25;99296.38;5097693;28;20460;-61
2020/12/07 11:33:13;;;;;;;28.50;15.33;;;;;;;4.78;84.59;99294.75;5093899;28;20482;-62
2020/12/07 11:35:40;;;;;;;31.17;17.30;;;;;;;4.71;84.57;99298.72;5098323;28;20527;-60
2020/12/07 11:38:13;;;;;;;18.63;10.23;;;;;;;4.57;83.97;99295.59;5096608;28;20482;-61
2020/12/07 11:40:52;;;;;;;21.77;8.87;;;;;;;4.48;83.96;99306.31;5098086;28;20492;-61
2020/12/07 11:43:28;;;;;;;23.07;13.47;;;;;;;4.43;84.67;99313.78;5089308;28;20509;-61
2020/12/07 11:45:55;;;;;;;24.93;13.13;;;;;;;4.44;85.17;99315.50;5098025;28;20539;-61
2020/12/07 11:48:21;;;;;;;31.70;15.77;;;;;;;4.25;86.04;99307.84;5097295;28;20478;-61
2020/12/07 11:50:48;;;;;;;31.97;16.90;;;;;;;4.32;86.64;99299.66;5098061;28;20465;-61
2020/12/07 11:53:15;;;;;;;35.03;17.57;;;;;;;4.50;86.51;99303.81;5096584;28;20477;-61
2020/12/07 11:55:45;;;;;;;36.33;18.43;;;;;;;4.46;86.44;99296.00;5098032;28;20555;-61